sensor_id;sensor_type;location;lat;lon;timestamp;temperature;humidity
38265;DHT22;24062;47.480;8.768;2022-10-16T00:00:39;14.60;76.30
38265;DHT22;24062;47.480;8.768;2022-10-16T00:03:06;14.60;76.50
38265;DHT22;24062;47.480;8.768;2022-10-16T00:05:38;14.60;76.50
38265;DHT22;24062;47.480;8.768;2022-10-16T00:08:06;14.60;76.70
38265;DHT22;24062;47.480;8.768;2022-10-16T00:10:34;14.60;76.80
38265;DHT22;24062;47.480;8.768;2022-10-16T00:13:03;14.60;76.70
38265;DHT22;24062;47.480;8.768;2022-10-16T00:15:30;14.60;76.90
38265;DHT22;24062;47.480;8.768;2022-10-16T00:17:57;14.70;77.10
38265;DHT22;24062;47.480;8.768;2022-10-16T00:20:24;14.70;77.10
38265;DHT22;24062;47.480;8.768;2022-10-16T00:22:51;14.70;77.30
38265;DHT22;24062;47.480;8.768;2022-10-16T00:25:18;14.80;77.40
38265;DHT22;24062;47.480;8.768;2022-10-16T00:27:44;14.80;77.40
38265;DHT22;24062;47.480;8.768;2022-10-16T00:30:13;14.80;77.50
38265;DHT22;24062;47.480;8.768;2022-10-16T00:32:40;14.80;77.50
38265;DHT22;24062;47.480;8.768;2022-10-16T00:35:07;14.80;77.70
38265;DHT22;24062;47.480;8.768;2022-10-16T00:37:34;14.80;77.90
38265;DHT22;24062;47.480;8.768;2022-10-16T00:40:00;15.00;78.20
38265;DHT22;24062;47.480;8.768;2022-10-16T00:42:27;14.80;78.10
38265;DHT22;24062;47.480;8.768;2022-10-16T00:44:56;14.80;78.20
38265;DHT22;24062;47.480;8.768;2022-10-16T00:47:29;14.90;78.20
38265;DHT22;24062;47.480;8.768;2022-10-16T00:50:01;14.90;78.40
38265;DHT22;24062;47.480;8.768;2022-10-16T00:52:29;14.90;78.20
38265;DHT22;24062;47.480;8.768;2022-10-16T00:54:57;14.90;78.20
38265;DHT22;24062;47.480;8.768;2022-10-16T00:57:25;14.80;78.10
38265;DHT22;24062;47.480;8.768;2022-10-16T00:59:52;14.90;78.30
38265;DHT22;24062;47.480;8.768;2022-10-16T01:02:20;14.90;78.40
38265;DHT22;24062;47.480;8.768;2022-10-16T01:04:50;14.90;79.20
38265;DHT22;24062;47.480;8.768;2022-10-16T01:07:29;14.90;79.20
38265;DHT22;24062;47.480;8.768;2022-10-16T01:10:04;14.90;78.70
38265;DHT22;24062;47.480;8.768;2022-10-16T01:12:40;14.90;79.50
38265;DHT22;24062;47.480;8.768;2022-10-16T01:15:13;14.90;78.90
38265;DHT22;24062;47.480;8.768;2022-10-16T01:17:47;14.90;78.70
38265;DHT22;24062;47.480;8.768;2022-10-16T01:20:23;14.90;78.90
38265;DHT22;24062;47.480;8.768;2022-10-16T01:23:10;14.90;78.90
38265;DHT22;24062;47.480;8.768;2022-10-16T01:26:05;14.90;79.20
38265;DHT22;24062;47.480;8.768;2022-10-16T01:28:41;14.90;79.20
38265;DHT22;24062;47.480;8.768;2022-10-16T01:31:11;14.80;78.90
38265;DHT22;24062;47.480;8.768;2022-10-16T01:33:43;14.80;80.10
38265;DHT22;24062;47.480;8.768;2022-10-16T01:36:14;14.80;79.70
38265;DHT22;24062;47.480;8.768;2022-10-16T01:38:44;14.80;79.80
38265;DHT22;24062;47.480;8.768;2022-10-16T01:41:15;14.90;80.20
38265;DHT22;24062;47.480;8.768;2022-10-16T01:43:47;14.80;80.30
38265;DHT22;24062;47.480;8.768;2022-10-16T01:46:18;14.90;80.20
38265;DHT22;24062;47.480;8.768;2022-10-16T01:48:48;14.90;80.30
38265;DHT22;24062;47.480;8.768;2022-10-16T01:51:17;14.90;80.30
38265;DHT22;24062;47.480;8.768;2022-10-16T01:53:48;14.90;80.30
38265;DHT22;24062;47.480;8.768;2022-10-16T01:56:17;15.00;80.60
38265;DHT22;24062;47.480;8.768;2022-10-16T01:58:51;15.00;80.50
38265;DHT22;24062;47.480;8.768;2022-10-16T02:01:21;15.00;80.50
38265;DHT22;24062;47.480;8.768;2022-10-16T02:03:52;15.00;80.50
38265;DHT22;24062;47.480;8.768;2022-10-16T02:06:20;15.00;80.70
38265;DHT22;24062;47.480;8.768;2022-10-16T02:08:48;15.00;80.70
38265;DHT22;24062;47.480;8.768;2022-10-16T02:11:15;15.00;80.70
38265;DHT22;24062;47.480;8.768;2022-10-16T02:13:45;15.10;80.80
38265;DHT22;24062;47.480;8.768;2022-10-16T02:16:14;15.00;80.50
38265;DHT22;24062;47.480;8.768;2022-10-16T02:18:42;15.00;80.40
38265;DHT22;24062;47.480;8.768;2022-10-16T02:21:15;14.90;80.40
38265;DHT22;24062;47.480;8.768;2022-10-16T02:23:47;14.90;80.50
38265;DHT22;24062;47.480;8.768;2022-10-16T02:26:21;14.80;80.30
38265;DHT22;24062;47.480;8.768;2022-10-16T02:28:54;14.70;80.60
38265;DHT22;24062;47.480;8.768;2022-10-16T02:31:27;14.70;80.70
38265;DHT22;24062;47.480;8.768;2022-10-16T02:33:56;14.60;80.70
38265;DHT22;24062;47.480;8.768;2022-10-16T02:36:25;14.60;80.70
38265;DHT22;24062;47.480;8.768;2022-10-16T02:38:52;14.60;80.60
38265;DHT22;24062;47.480;8.768;2022-10-16T02:41:20;14.40;80.40
38265;DHT22;24062;47.480;8.768;2022-10-16T02:43:47;14.30;80.40
38265;DHT22;24062;47.480;8.768;2022-10-16T02:46:15;14.30;80.50
38265;DHT22;24062;47.480;8.768;2022-10-16T02:48:44;14.30;80.80
38265;DHT22;24062;47.480;8.768;2022-10-16T02:51:11;14.20;81.00
38265;DHT22;24062;47.480;8.768;2022-10-16T02:53:38;14.20;81.20
38265;DHT22;24062;47.480;8.768;2022-10-16T02:56:05;14.20;81.40
38265;DHT22;24062;47.480;8.768;2022-10-16T02:58:32;14.20;81.60
38265;DHT22;24062;47.480;8.768;2022-10-16T03:00:59;14.20;81.50
38265;DHT22;24062;47.480;8.768;2022-10-16T03:03:26;14.20;81.60
38265;DHT22;24062;47.480;8.768;2022-10-16T03:05:54;14.10;81.30
38265;DHT22;24062;47.480;8.768;2022-10-16T03:08:21;14.10;81.40
38265;DHT22;24062;47.480;8.768;2022-10-16T03:10:51;14.10;81.50
38265;DHT22;24062;47.480;8.768;2022-10-16T03:13:18;14.10;81.60
38265;DHT22;24062;47.480;8.768;2022-10-16T03:15:45;14.10;81.60
38265;DHT22;24062;47.480;8.768;2022-10-16T03:18:12;14.10;81.60
38265;DHT22;24062;47.480;8.768;2022-10-16T03:20:39;14.10;81.70
38265;DHT22;24062;47.480;8.768;2022-10-16T03:23:08;14.10;81.90
38265;DHT22;24062;47.480;8.768;2022-10-16T03:25:35;14.10;82.10
38265;DHT22;24062;47.480;8.768;2022-10-16T03:28:02;14.00;81.90
38265;DHT22;24062;47.480;8.768;2022-10-16T03:30:29;14.00;81.80
38265;DHT22;24062;47.480;8.768;2022-10-16T03:32:55;13.90;81.80
38265;DHT22;24062;47.480;8.768;2022-10-16T03:35:23;13.90;82.70
38265;DHT22;24062;47.480;8.768;2022-10-16T03:37:50;13.80;83.10
38265;DHT22;24062;47.480;8.768;2022-10-16T03:40:19;13.80;82.80
38265;DHT22;24062;47.480;8.768;2022-10-16T03:42:46;13.70;82.50
38265;DHT22;24062;47.480;8.768;2022-10-16T03:45:13;13.70;82.40
38265;DHT22;24062;47.480;8.768;2022-10-16T03:47:40;13.70;82.60
38265;DHT22;24062;47.480;8.768;2022-10-16T03:50:07;13.60;82.50
38265;DHT22;24062;47.480;8.768;2022-10-16T03:52:35;13.60;82.60
38265;DHT22;24062;47.480;8.768;2022-10-16T03:55:01;13.60;82.60
38265;DHT22;24062;47.480;8.768;2022-10-16T03:57:30;13.50;83.20
38265;DHT22;24062;47.480;8.768;2022-10-16T03:59:56;13.50;83.30
38265;DHT22;24062;47.480;8.768;2022-10-16T04:02:23;13.50;83.20
38265;DHT22;24062;47.480;8.768;2022-10-16T04:04:50;13.60;84.00
38265;DHT22;24062;47.480;8.768;2022-10-16T04:07:18;13.60;84.20
38265;DHT22;24062;47.480;8.768;2022-10-16T04:09:45;13.60;83.30
38265;DHT22;24062;47.480;8.768;2022-10-16T04:12:12;13.50;83.20
38265;DHT22;24062;47.480;8.768;2022-10-16T04:14:40;13.70;83.40
38265;DHT22;24062;47.480;8.768;2022-10-16T04:17:07;13.70;83.60
38265;DHT22;24062;47.480;8.768;2022-10-16T04:19:34;13.60;83.60
38265;DHT22;24062;47.480;8.768;2022-10-16T04:22:00;13.70;83.50
38265;DHT22;24062;47.480;8.768;2022-10-16T04:24:27;13.70;83.60
38265;DHT22;24062;47.480;8.768;2022-10-16T04:26:54;13.70;83.80
38265;DHT22;24062;47.480;8.768;2022-10-16T04:29:21;13.80;83.80
38265;DHT22;24062;47.480;8.768;2022-10-16T04:31:49;13.80;83.70
38265;DHT22;24062;47.480;8.768;2022-10-16T04:34:16;13.90;83.80
38265;DHT22;24062;47.480;8.768;2022-10-16T04:36:43;13.90;83.70
38265;DHT22;24062;47.480;8.768;2022-10-16T04:39:10;13.90;83.60
38265;DHT22;24062;47.480;8.768;2022-10-16T04:41:37;14.00;83.80
38265;DHT22;24062;47.480;8.768;2022-10-16T04:44:04;14.00;83.70
38265;DHT22;24062;47.480;8.768;2022-10-16T04:46:31;14.00;83.60
38265;DHT22;24062;47.480;8.768;2022-10-16T04:48:59;14.00;83.60
38265;DHT22;24062;47.480;8.768;2022-10-16T04:51:26;14.10;83.90
38265;DHT22;24062;47.480;8.768;2022-10-16T04:53:53;14.10;83.90
38265;DHT22;24062;47.480;8.768;2022-10-16T04:56:21;14.10;83.90
38265;DHT22;24062;47.480;8.768;2022-10-16T04:58:48;14.10;83.60
38265;DHT22;24062;47.480;8.768;2022-10-16T05:01:15;14.00;83.50
38265;DHT22;24062;47.480;8.768;2022-10-16T05:03:42;13.90;83.70
38265;DHT22;24062;47.480;8.768;2022-10-16T05:06:11;13.80;83.70
38265;DHT22;24062;47.480;8.768;2022-10-16T05:08:37;13.70;83.60
38265;DHT22;24062;47.480;8.768;2022-10-16T05:11:04;13.70;84.00
38265;DHT22;24062;47.480;8.768;2022-10-16T05:13:31;13.60;83.70
38265;DHT22;24062;47.480;8.768;2022-10-16T05:15:58;13.50;83.60
38265;DHT22;24062;47.480;8.768;2022-10-16T05:18:25;13.50;83.80
38265;DHT22;24062;47.480;8.768;2022-10-16T05:20:52;13.40;83.80
38265;DHT22;24062;47.480;8.768;2022-10-16T05:23:20;13.40;84.00
38265;DHT22;24062;47.480;8.768;2022-10-16T05:25:52;13.40;83.90
38265;DHT22;24062;47.480;8.768;2022-10-16T05:28:20;13.40;84.10
38265;DHT22;24062;47.480;8.768;2022-10-16T05:30:47;13.40;84.20
38265;DHT22;24062;47.480;8.768;2022-10-16T05:33:13;13.40;84.40
38265;DHT22;24062;47.480;8.768;2022-10-16T05:35:40;13.40;84.60
38265;DHT22;24062;47.480;8.768;2022-10-16T05:38:07;13.50;84.70
38265;DHT22;24062;47.480;8.768;2022-10-16T05:40:36;13.50;84.50
38265;DHT22;24062;47.480;8.768;2022-10-16T05:43:03;13.50;84.40
38265;DHT22;24062;47.480;8.768;2022-10-16T05:45:30;13.60;84.40
38265;DHT22;24062;47.480;8.768;2022-10-16T05:47:57;13.60;84.50
38265;DHT22;24062;47.480;8.768;2022-10-16T05:50:24;13.60;84.50
38265;DHT22;24062;47.480;8.768;2022-10-16T05:52:51;13.70;84.60
38265;DHT22;24062;47.480;8.768;2022-10-16T05:55:18;13.70;84.60
38265;DHT22;24062;47.480;8.768;2022-10-16T05:57:46;13.70;84.50
38265;DHT22;24062;47.480;8.768;2022-10-16T06:00:13;13.80;84.50
38265;DHT22;24062;47.480;8.768;2022-10-16T06:02:40;13.80;84.50
38265;DHT22;24062;47.480;8.768;2022-10-16T06:05:07;13.80;84.60
38265;DHT22;24062;47.480;8.768;2022-10-16T06:07:35;13.90;84.60
38265;DHT22;24062;47.480;8.768;2022-10-16T06:10:03;13.80;84.60
38265;DHT22;24062;47.480;8.768;2022-10-16T06:12:30;13.80;84.90
38265;DHT22;24062;47.480;8.768;2022-10-16T06:14:58;13.80;85.30
38265;DHT22;24062;47.480;8.768;2022-10-16T06:17:25;13.90;85.40
38265;DHT22;24062;47.480;8.768;2022-10-16T06:19:51;14.00;85.50
38265;DHT22;24062;47.480;8.768;2022-10-16T06:22:18;14.10;85.40
38265;DHT22;24062;47.480;8.768;2022-10-16T06:24:45;14.20;85.40
38265;DHT22;24062;47.480;8.768;2022-10-16T06:27:13;14.20;85.40
38265;DHT22;24062;47.480;8.768;2022-10-16T06:29:40;14.20;85.20
38265;DHT22;24062;47.480;8.768;2022-10-16T06:32:09;14.30;85.50
38265;DHT22;24062;47.480;8.768;2022-10-16T06:34:36;14.30;85.50
38265;DHT22;24062;47.480;8.768;2022-10-16T06:37:05;14.40;85.60
38265;DHT22;24062;47.480;8.768;2022-10-16T06:39:32;14.40;85.40
38265;DHT22;24062;47.480;8.768;2022-10-16T06:41:59;14.40;85.50
38265;DHT22;24062;47.480;8.768;2022-10-16T06:44:26;14.40;85.70
38265;DHT22;24062;47.480;8.768;2022-10-16T06:46:52;14.50;85.90
38265;DHT22;24062;47.480;8.768;2022-10-16T06:49:21;14.60;86.20
38265;DHT22;24062;47.480;8.768;2022-10-16T06:51:48;14.70;86.30
38265;DHT22;24062;47.480;8.768;2022-10-16T06:54:15;14.70;86.00
38265;DHT22;24062;47.480;8.768;2022-10-16T06:56:43;14.80;85.90
38265;DHT22;24062;47.480;8.768;2022-10-16T06:59:10;14.80;85.90
38265;DHT22;24062;47.480;8.768;2022-10-16T07:01:37;14.80;86.00
38265;DHT22;24062;47.480;8.768;2022-10-16T07:04:04;14.80;85.90
38265;DHT22;24062;47.480;8.768;2022-10-16T07:06:33;14.80;85.90
38265;DHT22;24062;47.480;8.768;2022-10-16T07:09:03;14.80;85.90
38265;DHT22;24062;47.480;8.768;2022-10-16T07:11:31;14.70;85.80
38265;DHT22;24062;47.480;8.768;2022-10-16T07:13:58;14.70;85.90
38265;DHT22;24062;47.480;8.768;2022-10-16T07:16:26;14.70;86.00
38265;DHT22;24062;47.480;8.768;2022-10-16T07:18:53;14.60;86.10
38265;DHT22;24062;47.480;8.768;2022-10-16T07:21:24;14.60;86.20
38265;DHT22;24062;47.480;8.768;2022-10-16T07:23:53;14.60;86.20
38265;DHT22;24062;47.480;8.768;2022-10-16T07:26:21;14.60;87.20
38265;DHT22;24062;47.480;8.768;2022-10-16T07:28:49;14.60;86.40
38265;DHT22;24062;47.480;8.768;2022-10-16T07:31:17;14.60;86.30
38265;DHT22;24062;47.480;8.768;2022-10-16T07:33:45;14.60;86.40
38265;DHT22;24062;47.480;8.768;2022-10-16T07:36:14;14.50;86.30
38265;DHT22;24062;47.480;8.768;2022-10-16T07:38:41;14.60;86.50
38265;DHT22;24062;47.480;8.768;2022-10-16T07:41:12;14.50;86.30
38265;DHT22;24062;47.480;8.768;2022-10-16T07:43:39;14.50;86.40
38265;DHT22;24062;47.480;8.768;2022-10-16T07:46:06;14.80;88.20
38265;DHT22;24062;47.480;8.768;2022-10-16T07:48:34;15.30;87.20
38265;DHT22;24062;47.480;8.768;2022-10-16T07:51:03;15.80;86.70
38265;DHT22;24062;47.480;8.768;2022-10-16T07:53:31;16.20;86.50
38265;DHT22;24062;47.480;8.768;2022-10-16T07:55:58;16.70;85.40
38265;DHT22;24062;47.480;8.768;2022-10-16T07:58:27;17.10;84.80
38265;DHT22;24062;47.480;8.768;2022-10-16T08:00:54;17.50;84.30
38265;DHT22;24062;47.480;8.768;2022-10-16T08:03:21;17.90;83.90
38265;DHT22;24062;47.480;8.768;2022-10-16T08:05:48;18.30;83.40
38265;DHT22;24062;47.480;8.768;2022-10-16T08:08:16;18.70;83.00
38265;DHT22;24062;47.480;8.768;2022-10-16T08:10:44;19.10;82.40
38265;DHT22;24062;47.480;8.768;2022-10-16T08:13:11;19.40;81.90
38265;DHT22;24062;47.480;8.768;2022-10-16T08:15:41;19.70;81.30
38265;DHT22;24062;47.480;8.768;2022-10-16T08:18:10;19.90;80.60
38265;DHT22;24062;47.480;8.768;2022-10-16T08:20:37;20.00;80.20
38265;DHT22;24062;47.480;8.768;2022-10-16T08:23:03;19.90;80.30
38265;DHT22;24062;47.480;8.768;2022-10-16T08:25:31;19.50;81.00
38265;DHT22;24062;47.480;8.768;2022-10-16T08:27:58;19.20;82.00
38265;DHT22;24062;47.480;8.768;2022-10-16T08:30:24;19.00;82.90
38265;DHT22;24062;47.480;8.768;2022-10-16T08:32:53;18.80;83.70
38265;DHT22;24062;47.480;8.768;2022-10-16T08:35:19;18.80;84.50
38265;DHT22;24062;47.480;8.768;2022-10-16T08:37:46;18.90;85.10
38265;DHT22;24062;47.480;8.768;2022-10-16T08:40:18;18.90;85.40
38265;DHT22;24062;47.480;8.768;2022-10-16T08:46:20;19.10;85.60
38265;DHT22;24062;47.480;8.768;2022-10-16T08:48:54;19.00;85.00
38265;DHT22;24062;47.480;8.768;2022-10-16T08:51:23;19.10;85.40
38265;DHT22;24062;47.480;8.768;2022-10-16T08:53:54;19.10;85.40
38265;DHT22;24062;47.480;8.768;2022-10-16T08:56:22;19.00;84.10
38265;DHT22;24062;47.480;8.768;2022-10-16T08:58:49;19.00;84.90
38265;DHT22;24062;47.480;8.768;2022-10-16T09:01:19;19.10;85.50
38265;DHT22;24062;47.480;8.768;2022-10-16T09:07:11;19.30;85.20
38265;DHT22;24062;47.480;8.768;2022-10-16T09:09:55;19.50;85.00
38265;DHT22;24062;47.480;8.768;2022-10-16T09:12:28;19.60;84.80
38265;DHT22;24062;47.480;8.768;2022-10-16T09:15:04;19.60;84.70
38265;DHT22;24062;47.480;8.768;2022-10-16T09:17:41;19.80;85.30
38265;DHT22;24062;47.480;8.768;2022-10-16T09:20:22;20.00;85.00
38265;DHT22;24062;47.480;8.768;2022-10-16T09:22:58;20.20;84.40
38265;DHT22;24062;47.480;8.768;2022-10-16T09:25:28;20.30;83.90
38265;DHT22;24062;47.480;8.768;2022-10-16T09:27:55;20.40;84.30
38265;DHT22;24062;47.480;8.768;2022-10-16T09:30:22;20.50;83.90
38265;DHT22;24062;47.480;8.768;2022-10-16T09:32:53;20.60;83.90
38265;DHT22;24062;47.480;8.768;2022-10-16T09:35:24;20.70;83.10
38265;DHT22;24062;47.480;8.768;2022-10-16T09:37:55;20.90;83.30
38265;DHT22;24062;47.480;8.768;2022-10-16T09:40:26;21.00;82.70
38265;DHT22;24062;47.480;8.768;2022-10-16T09:43:01;21.20;82.70
38265;DHT22;24062;47.480;8.768;2022-10-16T09:45:28;21.20;82.40
38265;DHT22;24062;47.480;8.768;2022-10-16T09:47:55;21.20;82.40
38265;DHT22;24062;47.480;8.768;2022-10-16T09:50:24;21.40;82.90
38265;DHT22;24062;47.480;8.768;2022-10-16T09:53:05;21.60;82.60
38265;DHT22;24062;47.480;8.768;2022-10-16T09:55:32;21.80;82.90
38265;DHT22;24062;47.480;8.768;2022-10-16T09:57:58;22.00;82.10
38265;DHT22;24062;47.480;8.768;2022-10-16T10:00:25;22.10;82.20
38265;DHT22;24062;47.480;8.768;2022-10-16T10:02:54;22.30;82.10
38265;DHT22;24062;47.480;8.768;2022-10-16T10:05:23;22.20;80.50
38265;DHT22;24062;47.480;8.768;2022-10-16T10:07:56;22.30;80.80
38265;DHT22;24062;47.480;8.768;2022-10-16T10:10:26;22.40;80.90
38265;DHT22;24062;47.480;8.768;2022-10-16T10:12:54;22.60;81.30
38265;DHT22;24062;47.480;8.768;2022-10-16T10:15:22;22.70;80.10
38265;DHT22;24062;47.480;8.768;2022-10-16T10:17:51;22.70;80.40
38265;DHT22;24062;47.480;8.768;2022-10-16T10:20:24;23.00;81.00
38265;DHT22;24062;47.480;8.768;2022-10-16T10:22:51;23.10;79.60
38265;DHT22;24062;47.480;8.768;2022-10-16T10:25:48;23.20;79.90
38265;DHT22;24062;47.480;8.768;2022-10-16T10:28:39;23.40;79.20
38265;DHT22;24062;47.480;8.768;2022-10-16T10:31:14;23.60;79.30
38265;DHT22;24062;47.480;8.768;2022-10-16T10:33:46;23.70;79.00
38265;DHT22;24062;47.480;8.768;2022-10-16T10:36:25;23.70;78.40
38265;DHT22;24062;47.480;8.768;2022-10-16T10:38:57;23.70;78.10
38265;DHT22;24062;47.480;8.768;2022-10-16T10:41:54;23.80;78.70
38265;DHT22;24062;47.480;8.768;2022-10-16T10:44:30;24.00;77.60
38265;DHT22;24062;47.480;8.768;2022-10-16T10:47:09;24.10;77.80
38265;DHT22;24062;47.480;8.768;2022-10-16T10:49:50;24.10;76.00
38265;DHT22;24062;47.480;8.768;2022-10-16T10:52:32;24.10;76.50
38265;DHT22;24062;47.480;8.768;2022-10-16T10:55:11;24.30;76.30
38265;DHT22;24062;47.480;8.768;2022-10-16T10:57:47;24.40;75.10
38265;DHT22;24062;47.480;8.768;2022-10-16T11:00:23;24.50;75.60
38265;DHT22;24062;47.480;8.768;2022-10-16T11:03:02;24.70;75.80
38265;DHT22;24062;47.480;8.768;2022-10-16T11:05:39;24.90;75.60
38265;DHT22;24062;47.480;8.768;2022-10-16T11:08:10;25.10;75.30
38265;DHT22;24062;47.480;8.768;2022-10-16T11:10:45;25.20;75.10
38265;DHT22;24062;47.480;8.768;2022-10-16T11:13:21;25.30;73.50
38265;DHT22;24062;47.480;8.768;2022-10-16T11:15:55;25.40;73.40
38265;DHT22;24062;47.480;8.768;2022-10-16T11:18:27;25.70;72.20
38265;DHT22;24062;47.480;8.768;2022-10-16T11:21:02;26.00;72.70
38265;DHT22;24062;47.480;8.768;2022-10-16T11:23:33;26.60;73.30
38265;DHT22;24062;47.480;8.768;2022-10-16T11:26:05;27.10;73.70
38265;DHT22;24062;47.480;8.768;2022-10-16T11:28:44;27.50;71.80
38265;DHT22;24062;47.480;8.768;2022-10-16T11:31:15;27.50;70.00
38265;DHT22;24062;47.480;8.768;2022-10-16T11:33:47;27.30;68.90
38265;DHT22;24062;47.480;8.768;2022-10-16T11:36:19;27.20;69.80
38265;DHT22;24062;47.480;8.768;2022-10-16T11:38:51;27.20;69.10
38265;DHT22;24062;47.480;8.768;2022-10-16T11:41:26;27.00;68.60
38265;DHT22;24062;47.480;8.768;2022-10-16T11:44:05;26.90;68.50
38265;DHT22;24062;47.480;8.768;2022-10-16T11:46:34;26.90;68.60
38265;DHT22;24062;47.480;8.768;2022-10-16T11:49:09;27.10;67.60
38265;DHT22;24062;47.480;8.768;2022-10-16T11:51:40;26.90;65.90
38265;DHT22;24062;47.480;8.768;2022-10-16T11:54:17;26.80;66.20
38265;DHT22;24062;47.480;8.768;2022-10-16T11:56:50;26.50;64.90
38265;DHT22;24062;47.480;8.768;2022-10-16T11:59:26;26.60;66.00
38265;DHT22;24062;47.480;8.768;2022-10-16T12:02:07;26.80;65.80
38265;DHT22;24062;47.480;8.768;2022-10-16T12:04:43;26.90;64.50
38265;DHT22;24062;47.480;8.768;2022-10-16T12:07:14;27.00;64.80
38265;DHT22;24062;47.480;8.768;2022-10-16T12:09:44;27.30;65.80
38265;DHT22;24062;47.480;8.768;2022-10-16T12:12:25;27.40;64.20
38265;DHT22;24062;47.480;8.768;2022-10-16T12:15:03;27.20;63.20
38265;DHT22;24062;47.480;8.768;2022-10-16T12:17:44;27.20;63.60
38265;DHT22;24062;47.480;8.768;2022-10-16T12:20:26;27.30;63.50
38265;DHT22;24062;47.480;8.768;2022-10-16T12:22:57;27.20;63.10
38265;DHT22;24062;47.480;8.768;2022-10-16T12:25:27;27.60;64.70
38265;DHT22;24062;47.480;8.768;2022-10-16T12:27:56;28.00;64.40
38265;DHT22;24062;47.480;8.768;2022-10-16T12:30:26;28.50;64.60
38265;DHT22;24062;47.480;8.768;2022-10-16T12:32:55;28.60;62.90
38265;DHT22;24062;47.480;8.768;2022-10-16T12:35:24;28.60;61.70
38265;DHT22;24062;47.480;8.768;2022-10-16T12:37:52;28.70;62.60
38265;DHT22;24062;47.480;8.768;2022-10-16T12:40:28;29.00;62.30
38265;DHT22;24062;47.480;8.768;2022-10-16T12:42:56;29.20;62.10
38265;DHT22;24062;47.480;8.768;2022-10-16T12:45:29;29.30;61.90
38265;DHT22;24062;47.480;8.768;2022-10-16T12:47:57;29.50;62.30
38265;DHT22;24062;47.480;8.768;2022-10-16T12:50:32;29.80;62.90
38265;DHT22;24062;47.480;8.768;2022-10-16T12:53:00;30.10;63.10
38265;DHT22;24062;47.480;8.768;2022-10-16T12:55:34;30.30;62.30
38265;DHT22;24062;47.480;8.768;2022-10-16T12:58:24;30.50;61.90
38265;DHT22;24062;47.480;8.768;2022-10-16T13:01:02;30.90;62.60
38265;DHT22;24062;47.480;8.768;2022-10-16T13:03:51;31.50;61.90
38265;DHT22;24062;47.480;8.768;2022-10-16T13:06:30;31.80;60.40
38265;DHT22;24062;47.480;8.768;2022-10-16T13:09:14;31.90;57.30
38265;DHT22;24062;47.480;8.768;2022-10-16T13:12:13;32.20;57.20
38265;DHT22;24062;47.480;8.768;2022-10-16T13:17:42;33.10;57.60
38265;DHT22;24062;47.480;8.768;2022-10-16T13:20:18;34.00;56.40
38265;DHT22;24062;47.480;8.768;2022-10-16T13:22:54;34.90;54.90
38265;DHT22;24062;47.480;8.768;2022-10-16T13:25:28;35.30;54.30
38265;DHT22;24062;47.480;8.768;2022-10-16T13:28:00;36.00;53.40
38265;DHT22;24062;47.480;8.768;2022-10-16T13:30:29;36.80;52.50
38265;DHT22;24062;47.480;8.768;2022-10-16T13:33:02;36.70;48.50
38265;DHT22;24062;47.480;8.768;2022-10-16T13:35:31;36.80;48.40
38265;DHT22;24062;47.480;8.768;2022-10-16T13:38:11;37.20;47.00
38265;DHT22;24062;47.480;8.768;2022-10-16T13:40:49;38.10;47.30
38265;DHT22;24062;47.480;8.768;2022-10-16T13:43:17;39.20;46.30
38265;DHT22;24062;47.480;8.768;2022-10-16T13:45:53;40.00;44.50
38265;DHT22;24062;47.480;8.768;2022-10-16T13:48:21;40.50;44.30
38265;DHT22;24062;47.480;8.768;2022-10-16T13:50:59;41.30;43.90
38265;DHT22;24062;47.480;8.768;2022-10-16T13:53:26;41.30;42.40
38265;DHT22;24062;47.480;8.768;2022-10-16T13:55:53;41.80;42.40
38265;DHT22;24062;47.480;8.768;2022-10-16T13:58:20;42.50;42.20
38265;DHT22;24062;47.480;8.768;2022-10-16T14:00:55;42.90;41.00
38265;DHT22;24062;47.480;8.768;2022-10-16T14:03:25;43.20;40.50
38265;DHT22;24062;47.480;8.768;2022-10-16T14:05:55;43.30;39.50
38265;DHT22;24062;47.480;8.768;2022-10-16T14:08:23;43.40;39.90
38265;DHT22;24062;47.480;8.768;2022-10-16T14:10:53;44.00;39.40
38265;DHT22;24062;47.480;8.768;2022-10-16T14:13:28;44.10;37.20
38265;DHT22;24062;47.480;8.768;2022-10-16T14:15:56;43.50;36.50
38265;DHT22;24062;47.480;8.768;2022-10-16T14:18:27;43.30;36.70
38265;DHT22;24062;47.480;8.768;2022-10-16T14:20:54;43.30;36.80
38265;DHT22;24062;47.480;8.768;2022-10-16T14:23:23;43.50;36.90
38265;DHT22;24062;47.480;8.768;2022-10-16T14:26:06;44.00;36.80
38265;DHT22;24062;47.480;8.768;2022-10-16T14:28:33;44.70;36.40
38265;DHT22;24062;47.480;8.768;2022-10-16T14:31:01;44.80;35.60
38265;DHT22;24062;47.480;8.768;2022-10-16T14:33:33;45.20;35.60
38265;DHT22;24062;47.480;8.768;2022-10-16T14:36:03;45.20;35.00
38265;DHT22;24062;47.480;8.768;2022-10-16T14:38:32;45.70;34.90
38265;DHT22;24062;47.480;8.768;2022-10-16T14:40:59;44.90;33.50
38265;DHT22;24062;47.480;8.768;2022-10-16T14:43:32;43.90;33.20
38265;DHT22;24062;47.480;8.768;2022-10-16T14:46:02;43.50;33.80
38265;DHT22;24062;47.480;8.768;2022-10-16T14:48:31;43.20;33.50
38265;DHT22;24062;47.480;8.768;2022-10-16T14:50:58;42.80;33.40
38265;DHT22;24062;47.480;8.768;2022-10-16T14:53:25;42.80;33.80
38265;DHT22;24062;47.480;8.768;2022-10-16T14:55:52;42.80;33.70
38265;DHT22;24062;47.480;8.768;2022-10-16T14:58:20;42.40;33.20
38265;DHT22;24062;47.480;8.768;2022-10-16T15:00:48;41.60;32.90
38265;DHT22;24062;47.480;8.768;2022-10-16T15:03:16;40.40;32.50
38265;DHT22;24062;47.480;8.768;2022-10-16T15:05:44;39.40;32.90
38265;DHT22;24062;47.480;8.768;2022-10-16T15:08:11;39.00;33.60
38265;DHT22;24062;47.480;8.768;2022-10-16T15:10:40;38.80;33.90
38265;DHT22;24062;47.480;8.768;2022-10-16T15:13:11;38.80;34.10
38265;DHT22;24062;47.480;8.768;2022-10-16T15:15:42;38.50;34.20
38265;DHT22;24062;47.480;8.768;2022-10-16T15:18:09;38.80;34.80
38265;DHT22;24062;47.480;8.768;2022-10-16T15:20:37;39.10;35.00
38265;DHT22;24062;47.480;8.768;2022-10-16T15:23:10;39.50;35.20
38265;DHT22;24062;47.480;8.768;2022-10-16T15:25:42;40.10;35.40
38265;DHT22;24062;47.480;8.768;2022-10-16T15:28:10;40.50;34.30
38265;DHT22;24062;47.480;8.768;2022-10-16T15:30:38;38.70;32.20
38265;DHT22;24062;47.480;8.768;2022-10-16T15:33:12;36.50;32.30
38265;DHT22;24062;47.480;8.768;2022-10-16T15:35:39;34.40;32.90
38265;DHT22;24062;47.480;8.768;2022-10-16T15:38:10;32.90;33.60
38265;DHT22;24062;47.480;8.768;2022-10-16T15:40:37;31.70;34.40
38265;DHT22;24062;47.480;8.768;2022-10-16T15:43:04;30.80;34.80
38265;DHT22;24062;47.480;8.768;2022-10-16T15:45:31;30.10;35.40
38265;DHT22;24062;47.480;8.768;2022-10-16T15:47:58;29.60;35.90
38265;DHT22;24062;47.480;8.768;2022-10-16T15:50:26;29.10;36.40
38265;DHT22;24062;47.480;8.768;2022-10-16T15:52:53;28.70;37.10
38265;DHT22;24062;47.480;8.768;2022-10-16T15:55:21;28.30;37.60
38265;DHT22;24062;47.480;8.768;2022-10-16T15:57:48;28.10;38.50